sensor_id;sensor_type;location;lat;lon;timestamp;temperature;humidity
19218;DHT22;9743;52.550;13.264;2022-07-31T00:01:40;16.50;99.90
19218;DHT22;9743;52.550;13.264;2022-07-31T00:04:06;16.30;99.90
19218;DHT22;9743;52.550;13.264;2022-07-31T00:06:33;16.50;99.90
19218;DHT22;9743;52.550;13.264;2022-07-31T00:09:00;16.50;99.90
19218;DHT22;9743;52.550;13.264;2022-07-31T00:11:27;16.50;99.90
19218;DHT22;9743;52.550;13.264;2022-07-31T00:13:54;16.40;99.90
19218;DHT22;9743;52.550;13.264;2022-07-31T00:16:22;16.50;99.90
19218;DHT22;9743;52.550;13.264;2022-07-31T00:18:49;16.60;99.90
19218;DHT22;9743;52.550;13.264;2022-07-31T00:21:15;16.60;99.90
19218;DHT22;9743;52.550;13.264;2022-07-31T00:23:43;16.40;99.90
19218;DHT22;9743;52.550;13.264;2022-07-31T00:26:09;16.30;99.90
19218;DHT22;9743;52.550;13.264;2022-07-31T00:28:36;16.40;99.90
19218;DHT22;9743;52.550;13.264;2022-07-31T00:31:03;16.20;99.90
19218;DHT22;9743;52.550;13.264;2022-07-31T00:33:31;16.10;99.90
19218;DHT22;9743;52.550;13.264;2022-07-31T00:35:58;16.20;99.90
19218;DHT22;9743;52.550;13.264;2022-07-31T00:38:25;16.30;99.90
19218;DHT22;9743;52.550;13.264;2022-07-31T00:40:52;16.20;99.90
19218;DHT22;9743;52.550;13.264;2022-07-31T00:43:19;16.20;99.90
19218;DHT22;9743;52.550;13.264;2022-07-31T00:45:45;16.20;99.90
19218;DHT22;9743;52.550;13.264;2022-07-31T00:48:13;16.20;99.90
19218;DHT22;9743;52.550;13.264;2022-07-31T00:50:41;16.20;99.90
19218;DHT22;9743;52.550;13.264;2022-07-31T00:53:07;16.20;99.90
19218;DHT22;9743;52.550;13.264;2022-07-31T00:55:35;16.20;99.90
19218;DHT22;9743;52.550;13.264;2022-07-31T00:58:02;16.20;99.90
19218;DHT22;9743;52.550;13.264;2022-07-31T01:00:29;16.00;99.90
19218;DHT22;9743;52.550;13.264;2022-07-31T01:02:56;16.10;99.90
19218;DHT22;9743;52.550;13.264;2022-07-31T01:05:23;16.00;99.90
19218;DHT22;9743;52.550;13.264;2022-07-31T01:07:51;16.10;99.90
19218;DHT22;9743;52.550;13.264;2022-07-31T01:10:27;16.00;99.90
19218;DHT22;9743;52.550;13.264;2022-07-31T01:13:08;15.90;99.90
19218;DHT22;9743;52.550;13.264;2022-07-31T01:15:37;15.90;99.90
19218;DHT22;9743;52.550;13.264;2022-07-31T01:18:07;15.80;99.90
19218;DHT22;9743;52.550;13.264;2022-07-31T01:20:36;15.80;99.90
19218;DHT22;9743;52.550;13.264;2022-07-31T01:23:17;15.60;99.90
19218;DHT22;9743;52.550;13.264;2022-07-31T01:25:58;15.30;99.90
19218;DHT22;9743;52.550;13.264;2022-07-31T01:28:40;15.00;99.90
19218;DHT22;9743;52.550;13.264;2022-07-31T01:31:13;14.90;99.90
19218;DHT22;9743;52.550;13.264;2022-07-31T01:33:47;14.90;99.90
19218;DHT22;9743;52.550;13.264;2022-07-31T01:36:16;15.10;99.90
19218;DHT22;9743;52.550;13.264;2022-07-31T01:38:47;15.10;99.90
19218;DHT22;9743;52.550;13.264;2022-07-31T01:41:17;14.80;99.90
19218;DHT22;9743;52.550;13.264;2022-07-31T01:43:51;14.80;99.90
19218;DHT22;9743;52.550;13.264;2022-07-31T01:46:20;15.10;99.90
19218;DHT22;9743;52.550;13.264;2022-07-31T01:48:49;14.90;99.90
19218;DHT22;9743;52.550;13.264;2022-07-31T01:51:17;14.90;99.90
19218;DHT22;9743;52.550;13.264;2022-07-31T01:53:46;14.70;99.90
19218;DHT22;9743;52.550;13.264;2022-07-31T01:56:16;14.80;99.90
19218;DHT22;9743;52.550;13.264;2022-07-31T01:58:44;14.80;99.90
19218;DHT22;9743;52.550;13.264;2022-07-31T02:01:14;15.00;99.90
19218;DHT22;9743;52.550;13.264;2022-07-31T02:03:42;15.10;99.90
19218;DHT22;9743;52.550;13.264;2022-07-31T02:06:10;15.20;99.90
19218;DHT22;9743;52.550;13.264;2022-07-31T02:08:37;14.80;99.90
19218;DHT22;9743;52.550;13.264;2022-07-31T02:11:04;14.80;99.90
19218;DHT22;9743;52.550;13.264;2022-07-31T02:13:32;14.90;99.90
19218;DHT22;9743;52.550;13.264;2022-07-31T02:16:00;14.90;99.90
19218;DHT22;9743;52.550;13.264;2022-07-31T02:18:28;15.10;99.90
19218;DHT22;9743;52.550;13.264;2022-07-31T02:20:56;15.20;99.90
19218;DHT22;9743;52.550;13.264;2022-07-31T02:23:23;15.10;99.90
19218;DHT22;9743;52.550;13.264;2022-07-31T02:25:50;14.90;99.90
19218;DHT22;9743;52.550;13.264;2022-07-31T02:28:18;14.60;99.90
19218;DHT22;9743;52.550;13.264;2022-07-31T02:30:46;14.60;99.90
19218;DHT22;9743;52.550;13.264;2022-07-31T02:33:18;14.70;99.90
19218;DHT22;9743;52.550;13.264;2022-07-31T02:35:48;14.70;99.90
19218;DHT22;9743;52.550;13.264;2022-07-31T02:38:17;14.70;99.90
19218;DHT22;9743;52.550;13.264;2022-07-31T02:40:47;14.70;99.90
19218;DHT22;9743;52.550;13.264;2022-07-31T02:43:14;14.80;99.90
19218;DHT22;9743;52.550;13.264;2022-07-31T02:45:42;14.90;99.90
19218;DHT22;9743;52.550;13.264;2022-07-31T02:48:10;14.70;99.90
19218;DHT22;9743;52.550;13.264;2022-07-31T02:50:37;14.80;99.90
19218;DHT22;9743;52.550;13.264;2022-07-31T02:53:06;14.90;99.90
19218;DHT22;9743;52.550;13.264;2022-07-31T02:55:33;15.00;99.90
19218;DHT22;9743;52.550;13.264;2022-07-31T02:58:00;15.00;99.90
19218;DHT22;9743;52.550;13.264;2022-07-31T03:00:28;15.00;99.90
19218;DHT22;9743;52.550;13.264;2022-07-31T03:02:56;14.90;99.90
19218;DHT22;9743;52.550;13.264;2022-07-31T03:05:23;14.40;99.90
19218;DHT22;9743;52.550;13.264;2022-07-31T03:07:50;14.40;99.90
19218;DHT22;9743;52.550;13.264;2022-07-31T03:10:18;14.40;99.90
19218;DHT22;9743;52.550;13.264;2022-07-31T03:12:49;14.30;99.90
19218;DHT22;9743;52.550;13.264;2022-07-31T03:15:19;14.10;99.90
19218;DHT22;9743;52.550;13.264;2022-07-31T03:17:47;14.30;99.90
19218;DHT22;9743;52.550;13.264;2022-07-31T03:20:15;14.30;99.90
19218;DHT22;9743;52.550;13.264;2022-07-31T03:22:42;14.10;99.90
19218;DHT22;9743;52.550;13.264;2022-07-31T03:25:10;14.10;99.90
19218;DHT22;9743;52.550;13.264;2022-07-31T03:27:38;13.90;99.90
19218;DHT22;9743;52.550;13.264;2022-07-31T03:30:13;13.80;99.90
19218;DHT22;9743;52.550;13.264;2022-07-31T03:32:40;13.90;99.90
19218;DHT22;9743;52.550;13.264;2022-07-31T03:35:08;13.80;99.90
19218;DHT22;9743;52.550;13.264;2022-07-31T03:37:34;13.80;99.90
19218;DHT22;9743;52.550;13.264;2022-07-31T03:40:05;13.90;99.90
19218;DHT22;9743;52.550;13.264;2022-07-31T03:42:32;14.20;99.90
19218;DHT22;9743;52.550;13.264;2022-07-31T03:45:02;14.40;99.90
19218;DHT22;9743;52.550;13.264;2022-07-31T03:47:29;14.30;99.90
19218;DHT22;9743;52.550;13.264;2022-07-31T03:49:57;14.40;99.90
19218;DHT22;9743;52.550;13.264;2022-07-31T03:52:25;14.50;99.90
19218;DHT22;9743;52.550;13.264;2022-07-31T03:54:52;14.30;99.90
19218;DHT22;9743;52.550;13.264;2022-07-31T03:57:20;14.10;99.90
19218;DHT22;9743;52.550;13.264;2022-07-31T03:59:48;14.00;99.90
19218;DHT22;9743;52.550;13.264;2022-07-31T04:02:16;13.90;99.90
19218;DHT22;9743;52.550;13.264;2022-07-31T04:04:43;14.00;99.90
19218;DHT22;9743;52.550;13.264;2022-07-31T04:07:10;14.10;99.90
19218;DHT22;9743;52.550;13.264;2022-07-31T04:09:37;14.10;99.90
19218;DHT22;9743;52.550;13.264;2022-07-31T04:12:04;14.00;99.90
19218;DHT22;9743;52.550;13.264;2022-07-31T04:14:31;14.00;99.90
19218;DHT22;9743;52.550;13.264;2022-07-31T04:16:58;14.10;99.90
19218;DHT22;9743;52.550;13.264;2022-07-31T04:19:26;14.30;99.90
19218;DHT22;9743;52.550;13.264;2022-07-31T04:21:55;14.40;99.90
19218;DHT22;9743;52.550;13.264;2022-07-31T04:24:22;14.30;99.90
19218;DHT22;9743;52.550;13.264;2022-07-31T04:26:50;14.30;99.90
19218;DHT22;9743;52.550;13.264;2022-07-31T04:29:17;14.30;99.90
19218;DHT22;9743;52.550;13.264;2022-07-31T04:31:44;14.30;99.90
19218;DHT22;9743;52.550;13.264;2022-07-31T04:34:11;14.40;99.90
19218;DHT22;9743;52.550;13.264;2022-07-31T04:36:39;14.40;99.90
19218;DHT22;9743;52.550;13.264;2022-07-31T04:39:06;14.50;99.90
19218;DHT22;9743;52.550;13.264;2022-07-31T04:41:32;14.60;99.90
19218;DHT22;9743;52.550;13.264;2022-07-31T04:43:59;14.70;99.90
19218;DHT22;9743;52.550;13.264;2022-07-31T04:46:26;14.80;99.90
19218;DHT22;9743;52.550;13.264;2022-07-31T04:48:53;14.90;99.90
19218;DHT22;9743;52.550;13.264;2022-07-31T04:51:21;15.10;99.90
19218;DHT22;9743;52.550;13.264;2022-07-31T04:53:50;15.30;99.90
19218;DHT22;9743;52.550;13.264;2022-07-31T04:56:18;15.50;99.90
19218;DHT22;9743;52.550;13.264;2022-07-31T04:59:05;15.60;99.90
19218;DHT22;9743;52.550;13.264;2022-07-31T05:01:32;15.80;99.90
19218;DHT22;9743;52.550;13.264;2022-07-31T05:03:59;15.90;99.90
19218;DHT22;9743;52.550;13.264;2022-07-31T05:06:34;16.00;99.90
19218;DHT22;9743;52.550;13.264;2022-07-31T05:09:03;16.30;99.90
19218;DHT22;9743;52.550;13.264;2022-07-31T05:11:35;16.30;99.90
19218;DHT22;9743;52.550;13.264;2022-07-31T05:14:04;16.60;99.90
19218;DHT22;9743;52.550;13.264;2022-07-31T05:16:32;16.70;99.90
19218;DHT22;9743;52.550;13.264;2022-07-31T05:18:59;16.70;99.90
19218;DHT22;9743;52.550;13.264;2022-07-31T05:21:26;16.80;99.90
19218;DHT22;9743;52.550;13.264;2022-07-31T05:23:55;16.90;99.90
19218;DHT22;9743;52.550;13.264;2022-07-31T05:26:25;17.00;99.90
19218;DHT22;9743;52.550;13.264;2022-07-31T05:28:53;17.10;99.90
19218;DHT22;9743;52.550;13.264;2022-07-31T05:31:20;17.30;99.90
19218;DHT22;9743;52.550;13.264;2022-07-31T05:33:49;17.30;99.90
19218;DHT22;9743;52.550;13.264;2022-07-31T05:36:17;17.40;99.90
19218;DHT22;9743;52.550;13.264;2022-07-31T05:38:44;17.40;99.90
19218;DHT22;9743;52.550;13.264;2022-07-31T05:41:11;17.50;99.90
19218;DHT22;9743;52.550;13.264;2022-07-31T05:43:39;17.60;99.90
19218;DHT22;9743;52.550;13.264;2022-07-31T05:46:06;17.60;99.90
19218;DHT22;9743;52.550;13.264;2022-07-31T05:48:33;17.70;99.90
19218;DHT22;9743;52.550;13.264;2022-07-31T05:51:00;17.80;99.90
19218;DHT22;9743;52.550;13.264;2022-07-31T05:53:27;18.00;99.90
19218;DHT22;9743;52.550;13.264;2022-07-31T05:55:53;18.10;99.90
19218;DHT22;9743;52.550;13.264;2022-07-31T05:58:20;18.10;99.90
19218;DHT22;9743;52.550;13.264;2022-07-31T06:00:48;18.20;99.90
19218;DHT22;9743;52.550;13.264;2022-07-31T06:03:20;18.30;99.90
19218;DHT22;9743;52.550;13.264;2022-07-31T06:05:47;18.40;99.90
19218;DHT22;9743;52.550;13.264;2022-07-31T06:08:14;18.50;99.90
19218;DHT22;9743;52.550;13.264;2022-07-31T06:10:41;18.50;99.90
19218;DHT22;9743;52.550;13.264;2022-07-31T06:13:08;18.50;99.90
19218;DHT22;9743;52.550;13.264;2022-07-31T06:15:35;18.70;99.90
19218;DHT22;9743;52.550;13.264;2022-07-31T06:18:05;18.80;99.90
19218;DHT22;9743;52.550;13.264;2022-07-31T06:20:32;18.80;99.90
19218;DHT22;9743;52.550;13.264;2022-07-31T06:22:59;18.90;99.90
19218;DHT22;9743;52.550;13.264;2022-07-31T06:25:28;19.00;99.90
19218;DHT22;9743;52.550;13.264;2022-07-31T06:27:55;19.10;99.90
19218;DHT22;9743;52.550;13.264;2022-07-31T06:30:22;19.20;99.90
19218;DHT22;9743;52.550;13.264;2022-07-31T06:32:51;19.30;99.90
19218;DHT22;9743;52.550;13.264;2022-07-31T06:35:19;19.70;99.90
19218;DHT22;9743;52.550;13.264;2022-07-31T06:37:46;19.70;99.90
19218;DHT22;9743;52.550;13.264;2022-07-31T06:40:13;19.60;99.90
19218;DHT22;9743;52.550;13.264;2022-07-31T06:42:40;19.70;99.90
19218;DHT22;9743;52.550;13.264;2022-07-31T06:45:09;20.10;99.90
19218;DHT22;9743;52.550;13.264;2022-07-31T06:47:36;20.20;99.90
19218;DHT22;9743;52.550;13.264;2022-07-31T06:50:04;20.20;99.90
19218;DHT22;9743;52.550;13.264;2022-07-31T06:52:32;20.30;99.90
19218;DHT22;9743;52.550;13.264;2022-07-31T06:54:59;20.20;99.90
19218;DHT22;9743;52.550;13.264;2022-07-31T06:57:26;20.30;99.90
19218;DHT22;9743;52.550;13.264;2022-07-31T06:59:53;20.40;99.90
19218;DHT22;9743;52.550;13.264;2022-07-31T07:02:20;20.40;99.90
19218;DHT22;9743;52.550;13.264;2022-07-31T07:04:47;20.30;99.90
19218;DHT22;9743;52.550;13.264;2022-07-31T07:07:14;20.70;99.90
19218;DHT22;9743;52.550;13.264;2022-07-31T07:09:42;20.60;99.90
19218;DHT22;9743;52.550;13.264;2022-07-31T07:12:09;20.80;99.90
19218;DHT22;9743;52.550;13.264;2022-07-31T07:14:36;20.90;99.90
19218;DHT22;9743;52.550;13.264;2022-07-31T07:17:03;21.40;99.90
19218;DHT22;9743;52.550;13.264;2022-07-31T07:19:30;21.40;99.90
19218;DHT22;9743;52.550;13.264;2022-07-31T07:21:59;21.30;99.90
19218;DHT22;9743;52.550;13.264;2022-07-31T07:24:29;21.30;99.90
19218;DHT22;9743;52.550;13.264;2022-07-31T07:27:14;21.40;99.90
19218;DHT22;9743;52.550;13.264;2022-07-31T07:29:40;21.90;99.90
19218;DHT22;9743;52.550;13.264;2022-07-31T08:55:10;25.70;99.90
19218;DHT22;9743;52.550;13.264;2022-07-31T08:57:38;25.20;99.90
19218;DHT22;9743;52.550;13.264;2022-07-31T09:00:08;25.40;99.90
19218;DHT22;9743;52.550;13.264;2022-07-31T09:02:38;25.50;99.90
19218;DHT22;9743;52.550;13.264;2022-07-31T09:05:14;26.00;99.90
19218;DHT22;9743;52.550;13.264;2022-07-31T09:07:44;26.20;99.90
19218;DHT22;9743;52.550;13.264;2022-07-31T09:13:29;26.20;99.90
19218;DHT22;9743;52.550;13.264;2022-07-31T09:16:03;26.80;99.90
19218;DHT22;9743;52.550;13.264;2022-07-31T09:21:42;27.10;99.90
19218;DHT22;9743;52.550;13.264;2022-07-31T09:24:25;26.80;99.90
19218;DHT22;9743;52.550;13.264;2022-07-31T09:26:59;27.00;99.90
19218;DHT22;9743;52.550;13.264;2022-07-31T09:29:36;27.10;99.90
19218;DHT22;9743;52.550;13.264;2022-07-31T09:35:11;27.10;99.90
19218;DHT22;9743;52.550;13.264;2022-07-31T09:37:44;26.70;99.90
19218;DHT22;9743;52.550;13.264;2022-07-31T09:40:18;27.30;99.90
19218;DHT22;9743;52.550;13.264;2022-07-31T09:42:47;27.50;99.90
19218;DHT22;9743;52.550;13.264;2022-07-31T09:45:20;27.90;99.90
19218;DHT22;9743;52.550;13.264;2022-07-31T09:48:02;27.20;99.90
19218;DHT22;9743;52.550;13.264;2022-07-31T09:50:36;27.50;99.90
19218;DHT22;9743;52.550;13.264;2022-07-31T09:53:03;27.80;99.90
19218;DHT22;9743;52.550;13.264;2022-07-31T09:55:31;27.40;99.90
19218;DHT22;9743;52.550;13.264;2022-07-31T09:57:59;27.60;99.90
19218;DHT22;9743;52.550;13.264;2022-07-31T10:00:28;27.30;99.90
19218;DHT22;9743;52.550;13.264;2022-07-31T10:02:56;27.90;99.90
19218;DHT22;9743;52.550;13.264;2022-07-31T10:05:25;28.20;99.90
19218;DHT22;9743;52.550;13.264;2022-07-31T10:07:53;27.90;99.90
19218;DHT22;9743;52.550;13.264;2022-07-31T10:10:21;27.40;99.90
19218;DHT22;9743;52.550;13.264;2022-07-31T10:12:58;27.90;99.90
19218;DHT22;9743;52.550;13.264;2022-07-31T10:15:28;27.90;99.90
19218;DHT22;9743;52.550;13.264;2022-07-31T10:17:56;28.50;99.90
19218;DHT22;9743;52.550;13.264;2022-07-31T10:20:25;28.50;99.90
19218;DHT22;9743;52.550;13.264;2022-07-31T10:22:54;28.30;99.90
19218;DHT22;9743;52.550;13.264;2022-07-31T10:25:24;28.10;99.90
19218;DHT22;9743;52.550;13.264;2022-07-31T10:27:52;28.60;99.90
19218;DHT22;9743;52.550;13.264;2022-07-31T10:30:22;28.60;99.90
19218;DHT22;9743;52.550;13.264;2022-07-31T10:32:50;29.00;99.90
19218;DHT22;9743;52.550;13.264;2022-07-31T10:35:17;28.50;99.90
19218;DHT22;9743;52.550;13.264;2022-07-31T10:37:50;28.20;99.90
19218;DHT22;9743;52.550;13.264;2022-07-31T10:40:24;28.60;99.90
19218;DHT22;9743;52.550;13.264;2022-07-31T10:42:59;28.80;99.90
19218;DHT22;9743;52.550;13.264;2022-07-31T10:45:28;29.40;99.90
19218;DHT22;9743;52.550;13.264;2022-07-31T10:47:59;29.00;99.90
19218;DHT22;9743;52.550;13.264;2022-07-31T10:50:27;29.60;99.90
19218;DHT22;9743;52.550;13.264;2022-07-31T10:53:06;29.20;99.90
19218;DHT22;9743;52.550;13.264;2022-07-31T10:55:33;28.00;99.90
19218;DHT22;9743;52.550;13.264;2022-07-31T10:58:06;28.30;99.90
19218;DHT22;9743;52.550;13.264;2022-07-31T11:00:34;28.10;99.90
19218;DHT22;9743;52.550;13.264;2022-07-31T11:03:15;29.10;99.90
19218;DHT22;9743;52.550;13.264;2022-07-31T11:05:55;29.50;99.90
19218;DHT22;9743;52.550;13.264;2022-07-31T11:08:43;28.90;99.90
19218;DHT22;9743;52.550;13.264;2022-07-31T11:14:33;29.00;99.90
19218;DHT22;9743;52.550;13.264;2022-07-31T11:17:06;29.00;99.90
19218;DHT22;9743;52.550;13.264;2022-07-31T11:19:38;28.30;99.90
19218;DHT22;9743;52.550;13.264;2022-07-31T11:22:10;27.30;99.90
19218;DHT22;9743;52.550;13.264;2022-07-31T11:24:39;27.40;99.90
19218;DHT22;9743;52.550;13.264;2022-07-31T11:30:53;28.10;99.90
19218;DHT22;9743;52.550;13.264;2022-07-31T11:33:54;27.80;99.90
19218;DHT22;9743;52.550;13.264;2022-07-31T11:36:26;28.20;99.90
19218;DHT22;9743;52.550;13.264;2022-07-31T11:38:55;28.40;99.90
19218;DHT22;9743;52.550;13.264;2022-07-31T11:41:27;28.20;99.90
19218;DHT22;9743;52.550;13.264;2022-07-31T11:44:00;28.20;99.90
19218;DHT22;9743;52.550;13.264;2022-07-31T11:46:32;29.40;99.90
19218;DHT22;9743;52.550;13.264;2022-07-31T11:49:18;29.10;99.90
19218;DHT22;9743;52.550;13.264;2022-07-31T11:52:08;28.60;99.90
19218;DHT22;9743;52.550;13.264;2022-07-31T11:54:39;28.60;99.90
19218;DHT22;9743;52.550;13.264;2022-07-31T11:57:06;28.90;99.90
19218;DHT22;9743;52.550;13.264;2022-07-31T11:59:37;29.60;99.90
19218;DHT22;9743;52.550;13.264;2022-07-31T12:02:07;29.30;99.90
19218;DHT22;9743;52.550;13.264;2022-07-31T12:04:39;28.90;99.90
19218;DHT22;9743;52.550;13.264;2022-07-31T12:07:08;28.80;99.90
19218;DHT22;9743;52.550;13.264;2022-07-31T12:09:36;28.80;99.90
19218;DHT22;9743;52.550;13.264;2022-07-31T12:12:04;29.10;99.90
19218;DHT22;9743;52.550;13.264;2022-07-31T12:14:33;28.90;99.90
19218;DHT22;9743;52.550;13.264;2022-07-31T12:17:02;28.80;99.90
19218;DHT22;9743;52.550;13.264;2022-07-31T12:19:31;28.10;99.90
19218;DHT22;9743;52.550;13.264;2022-07-31T12:22:10;27.70;99.90
19218;DHT22;9743;52.550;13.264;2022-07-31T12:24:39;27.40;99.90
19218;DHT22;9743;52.550;13.264;2022-07-31T12:27:13;27.90;99.90
19218;DHT22;9743;52.550;13.264;2022-07-31T12:29:40;28.20;99.90
19218;DHT22;9743;52.550;13.264;2022-07-31T12:32:07;28.30;99.90
19218;DHT22;9743;52.550;13.264;2022-07-31T12:34:36;28.40;99.90
19218;DHT22;9743;52.550;13.264;2022-07-31T12:37:04;28.10;99.90
19218;DHT22;9743;52.550;13.264;2022-07-31T12:39:34;27.60;99.90
19218;DHT22;9743;52.550;13.264;2022-07-31T12:42:04;27.70;99.90
19218;DHT22;9743;52.550;13.264;2022-07-31T12:44:32;28.20;99.90
19218;DHT22;9743;52.550;13.264;2022-07-31T12:47:00;28.50;99.90
19218;DHT22;9743;52.550;13.264;2022-07-31T12:49:26;28.90;99.90
19218;DHT22;9743;52.550;13.264;2022-07-31T12:51:53;29.10;99.90
19218;DHT22;9743;52.550;13.264;2022-07-31T12:54:20;29.30;99.90
19218;DHT22;9743;52.550;13.264;2022-07-31T12:56:47;29.90;99.90
19218;DHT22;9743;52.550;13.264;2022-07-31T12:59:15;29.90;99.90
19218;DHT22;9743;52.550;13.264;2022-07-31T13:01:42;29.50;99.90
19218;DHT22;9743;52.550;13.264;2022-07-31T13:04:09;29.50;99.90
19218;DHT22;9743;52.550;13.264;2022-07-31T13:06:36;29.80;99.90
19218;DHT22;9743;52.550;13.264;2022-07-31T13:09:03;30.30;99.90
19218;DHT22;9743;52.550;13.264;2022-07-31T13:11:33;30.90;99.90
19218;DHT22;9743;52.550;13.264;2022-07-31T13:14:00;30.20;99.90
19218;DHT22;9743;52.550;13.264;2022-07-31T13:16:28;30.20;98.80
19218;DHT22;9743;52.550;13.264;2022-07-31T13:18:55;29.80;99.90
19218;DHT22;9743;52.550;13.264;2022-07-31T13:21:22;30.20;99.90
19218;DHT22;9743;52.550;13.264;2022-07-31T13:23:52;30.20;99.00
19218;DHT22;9743;52.550;13.264;2022-07-31T13:26:20;30.20;99.90
19218;DHT22;9743;52.550;13.264;2022-07-31T13:28:47;30.90;98.90
19218;DHT22;9743;52.550;13.264;2022-07-31T13:31:13;31.10;98.60
19218;DHT22;9743;52.550;13.264;2022-07-31T13:33:42;30.90;98.50
19218;DHT22;9743;52.550;13.264;2022-07-31T13:36:08;30.90;97.00
19218;DHT22;9743;52.550;13.264;2022-07-31T13:38:35;30.50;96.20
19218;DHT22;9743;52.550;13.264;2022-07-31T13:41:02;30.10;96.60
19218;DHT22;9743;52.550;13.264;2022-07-31T13:43:49;29.80;96.20
19218;DHT22;9743;52.550;13.264;2022-07-31T13:46:16;29.40;96.70
19218;DHT22;9743;52.550;13.264;2022-07-31T13:48:44;30.20;98.80
19218;DHT22;9743;52.550;13.264;2022-07-31T13:51:11;30.60;95.90
19218;DHT22;9743;52.550;13.264;2022-07-31T13:53:38;30.90;97.10
19218;DHT22;9743;52.550;13.264;2022-07-31T13:56:05;31.00;96.10
19218;DHT22;9743;52.550;13.264;2022-07-31T13:58:32;30.90;94.70
19218;DHT22;9743;52.550;13.264;2022-07-31T14:00:59;30.80;94.50
19218;DHT22;9743;52.550;13.264;2022-07-31T14:03:26;30.60;93.10
19218;DHT22;9743;52.550;13.264;2022-07-31T14:05:54;30.30;94.40
19218;DHT22;9743;52.550;13.264;2022-07-31T14:08:21;30.90;94.10
19218;DHT22;9743;52.550;13.264;2022-07-31T14:10:48;31.30;93.10
19218;DHT22;9743;52.550;13.264;2022-07-31T14:13:16;31.10;92.90
19218;DHT22;9743;52.550;13.264;2022-07-31T14:15:43;31.20;90.90
19218;DHT22;9743;52.550;13.264;2022-07-31T14:18:10;30.90;91.40
19218;DHT22;9743;52.550;13.264;2022-07-31T14:20:37;31.00;91.30
19218;DHT22;9743;52.550;13.264;2022-07-31T14:23:05;30.90;94.20
19218;DHT22;9743;52.550;13.264;2022-07-31T14:25:34;30.30;91.10
19218;DHT22;9743;52.550;13.264;2022-07-31T14:28:01;29.80;92.10
19218;DHT22;9743;52.550;13.264;2022-07-31T14:30:30;29.40;92.60
19218;DHT22;9743;52.550;13.264;2022-07-31T14:32:58;29.40;92.70
19218;DHT22;9743;52.550;13.264;2022-07-31T14:35:25;29.50;93.10
19218;DHT22;9743;52.550;13.264;2022-07-31T14:37:52;29.30;93.40
19218;DHT22;9743;52.550;13.264;2022-07-31T14:40:20;29.10;92.40
19218;DHT22;9743;52.550;13.264;2022-07-31T14:42:47;29.40;93.00
19218;DHT22;9743;52.550;13.264;2022-07-31T14:45:14;29.40;93.00
19218;DHT22;9743;52.550;13.264;2022-07-31T14:47:41;29.40;92.30
19218;DHT22;9743;52.550;13.264;2022-07-31T14:50:10;29.10;92.20
19218;DHT22;9743;52.550;13.264;2022-07-31T14:52:37;28.90;91.80
19218;DHT22;9743;52.550;13.264;2022-07-31T14:55:05;29.10;92.00
19218;DHT22;9743;52.550;13.264;2022-07-31T14:57:33;29.20;92.40
19218;DHT22;9743;52.550;13.264;2022-07-31T15:00:00;29.10;91.60
19218;DHT22;9743;52.550;13.264;2022-07-31T15:02:27;29.10;92.50
19218;DHT22;9743;52.550;13.264;2022-07-31T15:04:56;29.10;93.70
19218;DHT22;9743;52.550;13.264;2022-07-31T15:07:23;29.20;91.70
19218;DHT22;9743;52.550;13.264;2022-07-31T15:09:50;28.80;91.80
19218;DHT22;9743;52.550;13.264;2022-07-31T15:12:17;28.60;91.70
19218;DHT22;9743;52.550;13.264;2022-07-31T15:14:45;28.70;91.40
19218;DHT22;9743;52.550;13.264;2022-07-31T15:17:12;28.90;91.60
19218;DHT22;9743;52.550;13.264;2022-07-31T15:19:39;28.70;91.30
19218;DHT22;9743;52.550;13.264;2022-07-31T15:22:06;28.70;91.00
19218;DHT22;9743;52.550;13.264;2022-07-31T15:24:33;28.80;90.90
19218;DHT22;9743;52.550;13.264;2022-07-31T15:26:59;28.40;90.40
19218;DHT22;9743;52.550;13.264;2022-07-31T15:29:30;28.60;89.80
19218;DHT22;9743;52.550;13.264;2022-07-31T15:31:58;28.30;90.90
19218;DHT22;9743;52.550;13.264;2022-07-31T15:34:25;28.40;91.30
19218;DHT22;9743;52.550;13.264;2022-07-31T15:36:52;28.30;90.90
19218;DHT22;9743;52.550;13.264;2022-07-31T15:39:18;28.10;91.50
19218;DHT22;9743;52.550;13.264;2022-07-31T15:41:45;28.00;92.40
19218;DHT22;9743;52.550;13.264;2022-07-31T15:44:15;28.10;92.20
19218;DHT22;9743;52.550;13.264;2022-07-31T15:46:41;28.20;91.70
19218;DHT22;9743;52.550;13.264;2022-07-31T15:49:10;28.00;91.10
19218;DHT22;9743;52.550;13.264;2022-07-31T15:51:36;28.00;91.20
19218;DHT22;9743;52.550;13.264;2022-07-31T15:54:03;27.70;91.10
19218;DHT22;9743;52.550;13.264;2022-07-31T15:56:30;27.40;92.10
19218;DHT22;9743;52.550;13.264;2022-07-31T15:59:00;27.40;92.00
19218;DHT22;9743;52.550;13.264;2022-07-31T16:01:27;27.30;91.80
19218;DHT22;9743;52.550;13.264;2022-07-31T16:03:54;27.20;91.70
19218;DHT22;9743;52.550;13.264;2022-07-31T16:06:22;27.10;91.90
19218;DHT22;9743;52.550;13.264;2022-07-31T16:08:49;27.20;92.10
19218;DHT22;9743;52.550;13.264;2022-07-31T16:11:16;27.30;92.40
19218;DHT22;9743;52.550;13.264;2022-07-31T16:13:43;27.30;92.50
19218;DHT22;9743;52.550;13.264;2022-07-31T16:16:10;27.40;92.10
19218;DHT22;9743;52.550;13.264;2022-07-31T16:18:38;27.30;93.00
19218;DHT22;9743;52.550;13.264;2022-07-31T16:21:05;27.40;92.20
19218;DHT22;9743;52.550;13.264;2022-07-31T16:23:33;27.70;91.20
19218;DHT22;9743;52.550;13.264;2022-07-31T16:26:00;27.70;92.20
19218;DHT22;9743;52.550;13.264;2022-07-31T16:28:27;27.80;91.20
19218;DHT22;9743;52.550;13.264;2022-07-31T16:30:54;27.60;91.30
19218;DHT22;9743;52.550;13.264;2022-07-31T16:33:21;27.50;90.60
19218;DHT22;9743;52.550;13.264;2022-07-31T16:35:47;27.60;91.40
19218;DHT22;9743;52.550;13.264;2022-07-31T16:38:14;27.80;91.50
19218;DHT22;9743;52.550;13.264;2022-07-31T16:40:42;27.90;91.10
19218;DHT22;9743;52.550;13.264;2022-07-31T16:43:09;28.00;90.70
19218;DHT22;9743;52.550;13.264;2022-07-31T16:45:36;27.90;91.90
19218;DHT22;9743;52.550;13.264;2022-07-31T16:48:04;27.90;91.60
19218;DHT22;9743;52.550;13.264;2022-07-31T16:50:31;27.80;90.80
19218;DHT22;9743;52.550;13.264;2022-07-31T16:52:57;27.50;92.30
19218;DHT22;9743;52.550;13.264;2022-07-31T16:55:26;27.40;91.50
19218;DHT22;9743;52.550;13.264;2022-07-31T16:57:55;27.30;91.40
19218;DHT22;9743;52.550;13.264;2022-07-31T17:00:22;27.30;91.10
19218;DHT22;9743;52.550;13.264;2022-07-31T17:02:49;27.20;91.10
19218;DHT22;9743;52.550;13.264;2022-07-31T17:05:18;27.20;91.40
19218;DHT22;9743;52.550;13.264;2022-07-31T17:07:44;27.20;90.60
19218;DHT22;9743;52.550;13.264;2022-07-31T17:10:11;27.00;91.00
19218;DHT22;9743;52.550;13.264;2022-07-31T17:12:38;27.10;91.00
19218;DHT22;9743;52.550;13.264;2022-07-31T17:15:08;26.90;92.40
19218;DHT22;9743;52.550;13.264;2022-07-31T17:17:35;26.90;92.40
19218;DHT22;9743;52.550;13.264;2022-07-31T17:20:02;26.90;91.40